Aérodrome :
LOGIN :

S'inscrire | Disclaimer

   EN    FR    IT 

 










Légende :    VFR   VFR Marginal   IFR   IFR Intensif   IFR Très Intensif
Visi : 
Plafond : 
>= 8 km
>= 3000ft
5 à 8 km
1000 à 3000 ft
1500m à 5 km
500 à 1000 ft
800 à 1500m
200 à 500 ft
< 800m
< 200 ft
Symboles :   Orages  Brouillard  Fortes neiges  Fortes précipitations  Vent > 20 kt
SIGMETs :   Divers  Orages  Givrage  Turbulence  Onde Orograph.  Cendres Volcan.






- Altitude de l'aérodrome : 1521 ft
- Code IATA : NCY


LFLP - Annecy

DERNIER METAR :
  • 011100Z AUTO VRB03KT 7000 -RA OVC010 02/02 Q1017 TEMPO 3000 -RA

METARs EXPIRÉS :
  • 011030Z AUTO VRB02KT 5000 BR OVC013 02/01 Q1018 TEMPO BKN009 OVC014
  • 011000Z AUTO 03001KT 3200 BR OVC015 01/01 Q1018 TEMPO BKN009 OVC014
  • 010930Z AUTO 04001KT 4000 -DZ BR BKN012 OVC018 01/01 Q1018 TEMPO BKN009 OVC014
  • 010900Z AUTO VRB02KT 2700 -FZRA BR FEW009 BKN016 OVC021 01/01 Q1018 TEMPO 3000 -RA BKN009 OVC014
  • 010830Z AUTO VRB03KT 2400 -SN BR BKN009 OVC017 01/00 Q1018 TEMPO 3000 -RA

TAF TAF LFLP
Valide du 01 à 09h jusqu'au 02 à 09h UTC


010800Z 0109/0209 VRB05KT 6000 BKN020
TEMPO 0109/0115 3000 -RA BKN009 OVC014
PROB40
TEMPO 0109/0112 -RASN
FM011500 02008KT 8000 OVC016
TEMPO 0121/0209 3000 BR OVC009



MET'MAP, la Météo Aéronautique d'un coup d'oeil ! - Copyright ORBIFLY Décembre 2007 - Disclaimer

ORBIFLY MET'MAP TEAM :

Programmation & Développement : Alexandra Zaïnal
Sur une idée originale de : Baudouin d'Aumeries
Assistance à la programmation : Marc-Olivier Méhu
Soutien technique & logistique : Manuel Goepfert

Contact : metmap@orbifly.com




SOURCES & CREDITS :

   NOAA